Big Bear Station Historical Data
Daily Summary for August 3, 2017 Units:  English    Metric   Both
« Previous Day
Next Day »
Daily Weekly Monthly Yearly Custom
  High: Low: Average:
Temperature: 74.7 °F 56.3 °F 63.5 °F
Dew Point: 63.4 °F 55.4 °F 58.6 °F
Humidity: 97 % 66 % 85 %
Wind Speed: 4.7 mph 0.0 mph 1.1 mph
Wind Gust: -999.0 mph - -
Wind:- - West
Pressure: 30.37 in 30.30 in -
Precipitation: 0.47 in    
Historical Graphs
 
 
Tabular Data for August 3, 2017
Time Temperature Dew Point Pressure Wind Wind Speed Wind Gust Humidity Rainfall Rate (Hourly)
00:00 60.1 °F 58.7 °F 30.35 in Calm   -999.0 mph 95 % 0 in
00:16 59.9 °F 58.5 °F 30.35 in Calm   -999.0 mph 95 % 0 in
00:31 60.1 °F 58.7 °F 30.34 in Calm   -999.0 mph 95 % 0 in
00:47 60.1 °F 58.7 °F 30.34 in Calm   -999.0 mph 95 % 0 in
01:02 60.3 °F 58.9 °F 30.35 in SSE 1.7 mph -999.0 mph 95 % 0 in
01:17 60.4 °F 59.0 °F 30.35 in Calm   -999.0 mph 95 % 0 in
01:32 60.1 °F 58.4 °F 30.35 in Calm   -999.0 mph 94 % 0 in
01:48 59.5 °F 58.1 °F 30.34 in SSW 1.7 mph -999.0 mph 95 % 0 in
02:03 58.8 °F 57.1 °F 30.34 in Calm   -999.0 mph 94 % 0 in
02:18 58.3 °F 56.3 °F 30.34 in South 1.7 mph -999.0 mph 93 % 0 in
02:33 58.1 °F 56.4 °F 30.34 in Calm   -999.0 mph 94 % 0 in
02:48 57.9 °F 56.2 °F 30.34 in Calm   -999.0 mph 94 % 0 in
03:04 57.7 °F 56.3 °F 30.34 in Calm   -999.0 mph 95 % 0 in
03:19 57.6 °F 56.2 °F 30.34 in Calm   -999.0 mph 95 % 0 in
03:34 57.7 °F 56.6 °F 30.34 in Calm   -999.0 mph 96 % 0 in
03:49 57.7 °F 56.9 °F 30.34 in Calm   -999.0 mph 97 % 0 in
04:04 57.7 °F 56.9 °F 30.34 in Calm   -999.0 mph 97 % 0 in
04:20 57.6 °F 56.8 °F 30.34 in Calm   -999.0 mph 97 % 0 in
04:35 57.4 °F 56.6 °F 30.34 in Calm   -999.0 mph 97 % 0 in
04:50 57.2 °F 56.4 °F 30.34 in Calm   -999.0 mph 97 % 0 in
05:05 57.0 °F 56.2 °F 30.33 in Calm   -999.0 mph 97 % 0 in
05:21 56.8 °F 56.0 °F 30.33 in Calm   -999.0 mph 97 % 0 in
05:36 56.5 °F 55.7 °F 30.33 in Calm   -999.0 mph 97 % 0 in
05:51 56.5 °F 55.7 °F 30.34 in Calm   -999.0 mph 97 % 0 in
06:06 56.3 °F 55.5 °F 30.34 in Calm   -999.0 mph 97 % 0 in
06:21 56.3 °F 55.5 °F 30.34 in Calm   -999.0 mph 97 % 0 in
06:37 56.7 °F 55.9 °F 30.34 in Calm   -999.0 mph 97 % 0 in
06:52 57.0 °F 56.2 °F 30.34 in Calm   -999.0 mph 97 % 0 in
07:07 57.7 °F 56.9 °F 30.34 in Calm   -999.0 mph 97 % 0 in
07:22 58.5 °F 57.7 °F 30.35 in Calm   -999.0 mph 97 % 0 in
07:37 58.8 °F 58.0 °F 30.35 in Calm   -999.0 mph 97 % 0 in
07:53 59.0 °F 57.6 °F 30.35 in Calm   -999.0 mph 95 % 0 in
08:08 59.7 °F 58.3 °F 30.36 in Calm   -999.0 mph 95 % 0 in
08:23 60.4 °F 58.7 °F 30.36 in Calm   -999.0 mph 94 % 0 in
08:38 60.6 °F 58.6 °F 30.36 in Calm   -999.0 mph 93 % 0 in
08:53 61.3 °F 59.3 °F 30.36 in Calm   -999.0 mph 93 % 0 in
09:09 61.9 °F 59.2 °F 30.36 in Calm   -999.0 mph 91 % 0 in
09:24 63.9 °F 60.3 °F 30.36 in NNW 2.7 mph -999.0 mph 88 % 0 in
09:39 64.6 °F 59.0 °F 30.37 in NNW 2.2 mph -999.0 mph 82 % 0 in
09:54 65.1 °F 59.8 °F 30.36 in Calm   -999.0 mph 83 % 0 in
10:09 66.6 °F 55.7 °F 30.36 in Calm   -999.0 mph 68 % 0 in
10:25 67.8 °F 59.2 °F 30.36 in NNW 1.7 mph -999.0 mph 74 % 0 in
10:40 68.7 °F 57.3 °F 30.36 in NW 2.2 mph -999.0 mph 67 % 0 in
10:55 69.1 °F 58.1 °F 30.36 in NW 2.7 mph -999.0 mph 68 % 0 in
11:11 69.3 °F 58.3 °F 30.36 in NNW 1.7 mph -999.0 mph 68 % 0 in
11:26 70.2 °F 59.1 °F 30.36 in NNW 3.2 mph -999.0 mph 68 % 0 in
11:41 70.2 °F 59.6 °F 30.36 in NNW 2.7 mph -999.0 mph 69 % 0 in
11:57 71.1 °F 60.4 °F 30.36 in NW 3.7 mph -999.0 mph 69 % 0 in
12:12 71.4 °F 59.9 °F 30.36 in WNW 2.7 mph -999.0 mph 67 % 0 in
12:27 72.0 °F 60.0 °F 30.36 in North 2.7 mph -999.0 mph 66 % 0 in
12:42 72.1 °F 60.5 °F 30.36 in NW 3.2 mph -999.0 mph 67 % 0 in
12:57 71.6 °F 60.9 °F 30.36 in WNW 2.7 mph -999.0 mph 69 % 0 in
13:13 71.6 °F 60.9 °F 30.36 in West 1.1 mph -999.0 mph 69 % 0 in
13:28 72.3 °F 61.1 °F 30.35 in SE 2.2 mph -999.0 mph 68 % 0 in
13:43 71.6 °F 61.3 °F 30.35 in WNW 3.2 mph -999.0 mph 70 % 0 in
13:58 71.6 °F 60.9 °F 30.35 in NW 4.2 mph -999.0 mph 69 % 0 in
14:14 71.4 °F 61.1 °F 30.34 in NNW 2.7 mph -999.0 mph 70 % 0 in
14:29 71.6 °F 60.9 °F 30.34 in NNW 2.7 mph -999.0 mph 69 % 0 in
14:44 72.0 °F 60.9 °F 30.34 in NW 1.7 mph -999.0 mph 68 % 0 in
14:59 70.9 °F 62.2 °F 30.33 in NNW 2.7 mph -999.0 mph 74 % 0 in
15:15 64.0 °F 58.7 °F 30.34 in SSE 4.7 mph -999.0 mph 83 % 0 in
15:30 62.1 °F 58.2 °F 30.34 in South 2.2 mph -999.0 mph 87 % 0 in
15:46 61.9 °F 58.3 °F 30.34 in Calm   -999.0 mph 88 % 0 in
16:01 62.6 °F 59.3 °F 30.34 in Calm   -999.0 mph 89 % 0 in
16:16 65.7 °F 61.1 °F 30.34 in SSE 1.1 mph -999.0 mph 85 % 0 in
16:31 68.9 °F 62.1 °F 30.32 in WNW 1.7 mph -999.0 mph 79 % 0 in
16:46 69.8 °F 61.5 °F 30.32 in Calm   -999.0 mph 75 % 0 in
17:02 72.0 °F 61.3 °F 30.32 in South 2.2 mph -999.0 mph 69 % 0 in
17:17 71.4 °F 60.7 °F 30.32 in NW 4.7 mph -999.0 mph 69 % 0 in
17:32 69.8 °F 61.5 °F 30.32 in West 1.7 mph -999.0 mph 75 % 0 in
17:47 68.5 °F 61.7 °F 30.31 in NW 2.2 mph -999.0 mph 79 % 0 in
18:02 68.4 °F 62.0 °F 30.31 in ENE 2.7 mph -999.0 mph 80 % 0 in
18:18 73.4 °F 63.4 °F 30.31 in NW 2.7 mph -999.0 mph 71 % 0 in
18:33 74.7 °F 62.6 °F 30.30 in NW 3.7 mph -999.0 mph 66 % 0 in
18:48 70.9 °F 59.8 °F 30.30 in Calm   -999.0 mph 68 % 0 in
19:03 68.4 °F 61.3 °F 30.31 in NNW 1.7 mph -999.0 mph 78 % 0 in
19:19 66.9 °F 60.9 °F 30.31 in Calm   -999.0 mph 81 % 0 in
19:34 65.8 °F 60.5 °F 30.32 in Calm   -999.0 mph 83 % 0 in
19:49 64.8 °F 59.9 °F 30.32 in Calm   -999.0 mph 84 % 0 in
20:05 64.0 °F 59.7 °F 30.32 in Calm   -999.0 mph 86 % 0 in
20:20 63.1 °F 59.5 °F 30.32 in Calm   -999.0 mph 88 % 0 in
20:35 62.4 °F 58.8 °F 30.32 in Calm   -999.0 mph 88 % 0 in
20:50 62.1 °F 59.1 °F 30.33 in Calm   -999.0 mph 90 % 0 in
21:06 61.7 °F 58.7 °F 30.33 in Calm   -999.0 mph 90 % 0 in
21:21 61.2 °F 58.6 °F 30.33 in South 1.7 mph -999.0 mph 91 % 0 in
21:36 61.0 °F 57.7 °F 30.33 in South 1.7 mph -999.0 mph 89 % 0 in
21:52 60.4 °F 56.8 °F 30.33 in South 1.1 mph -999.0 mph 88 % 0 in
22:07 60.3 °F 56.7 °F 30.33 in SSW 2.2 mph -999.0 mph 88 % 0 in
22:22 59.9 °F 56.3 °F 30.34 in South 2.7 mph -999.0 mph 88 % 0 in
22:38 59.5 °F 55.9 °F 30.34 in Calm   -999.0 mph 88 % 0 in
22:53 59.0 °F 55.8 °F 30.34 in Calm   -999.0 mph 89 % 0 in
23:08 58.6 °F 55.7 °F 30.34 in South 1.7 mph -999.0 mph 90 % 0 in
23:23 58.3 °F 55.7 °F 30.34 in Calm   -999.0 mph 91 % 0 in
23:39 58.1 °F 55.5 °F 30.34 in SSE 1.7 mph -999.0 mph 91 % 0 in
23:54 57.7 °F 55.4 °F 30.34 in Calm   -999.0 mph 92 % 0 in
Big Bear CA Weather
Compliments of Weather Underground - 1.5 mb